createdAt,value
2023-02-04T00:00:37.513Z,63.47
2023-02-04T00:03:06.421Z,63.68
2023-02-04T00:05:35.429Z,63.82
2023-02-04T00:08:06.630Z,63.97
2023-02-04T00:10:36.517Z,64.25
2023-02-04T00:13:04.929Z,64.52
2023-02-04T00:15:36.512Z,64.93
2023-02-04T00:18:05.705Z,65.15
2023-02-04T00:20:34.001Z,65.24
2023-02-04T00:23:01.988Z,65.42
2023-02-04T00:25:30.214Z,65.27
2023-02-04T00:27:58.715Z,65.24
2023-02-04T00:30:26.962Z,65.02
2023-02-04T00:32:56.665Z,64.91
2023-02-04T00:35:24.766Z,64.73
2023-02-04T00:37:53.595Z,64.70
2023-02-04T00:40:21.672Z,64.69
2023-02-04T00:42:49.985Z,64.38
2023-02-04T00:45:18.362Z,64.51
2023-02-04T00:47:46.530Z,64.31
2023-02-04T00:50:15.330Z,64.39
2023-02-04T00:52:45.035Z,64.35
2023-02-04T00:55:13.715Z,64.42
2023-02-04T00:57:41.829Z,64.21
2023-02-04T01:00:11.289Z,64.15
2023-02-04T01:02:40.893Z,64.27
2023-02-04T01:05:09.226Z,64.30
2023-02-04T01:07:40.761Z,64.38
2023-02-04T01:10:10.344Z,64.48
2023-02-04T01:12:38.680Z,64.34
2023-02-04T01:15:07.944Z,64.25
2023-02-04T01:17:36.276Z,64.38
2023-02-04T01:20:04.675Z,64.35
2023-02-04T01:22:33.262Z,64.40
2023-02-04T01:25:01.430Z,64.18
2023-02-04T01:27:44.602Z,64.22
2023-02-04T01:30:13.451Z,64.34
2023-02-04T01:32:41.911Z,64.26
2023-02-04T01:35:10.736Z,64.47
2023-02-04T01:37:40.136Z,64.54
2023-02-04T01:40:10.401Z,64.31
2023-02-04T01:42:38.746Z,64.56
2023-02-04T01:45:06.991Z,64.55
2023-02-04T01:47:35.784Z,64.54
2023-02-04T01:50:04.039Z,64.43
2023-02-04T01:52:35.271Z,64.57
2023-02-04T01:55:03.396Z,64.74
2023-02-04T01:57:31.962Z,64.68
2023-02-04T02:00:00.239Z,64.56
2023-02-04T02:02:42.582Z,64.48
2023-02-04T02:05:13.273Z,64.76
2023-02-04T02:07:42.909Z,64.61
2023-02-04T02:10:11.894Z,64.50
2023-02-04T02:12:39.793Z,64.54
2023-02-04T02:15:09.140Z,64.53
2023-02-04T02:17:38.133Z,64.56
2023-02-04T02:20:07.844Z,64.76
2023-02-04T02:22:44.838Z,64.58
2023-02-04T02:25:13.596Z,64.58
2023-02-04T02:27:44.458Z,64.69
2023-02-04T02:30:15.158Z,65.02
2023-02-04T02:32:45.065Z,64.96
2023-02-04T02:35:13.251Z,65.00
2023-02-04T02:37:41.835Z,64.84
2023-02-04T02:40:10.675Z,64.63
2023-02-04T02:42:43.457Z,64.43
2023-02-04T02:45:20.670Z,64.48
2023-02-04T02:47:48.993Z,64.24
2023-02-04T02:50:18.762Z,64.27
2023-02-04T02:52:47.589Z,64.13
2023-02-04T02:55:17.298Z,63.95
2023-02-04T02:57:46.782Z,63.83
2023-02-04T03:00:19.309Z,63.72
2023-02-04T03:02:53.876Z,63.80
2023-02-04T03:05:22.066Z,63.65
2023-02-04T03:07:50.447Z,63.95
2023-02-04T03:10:18.751Z,63.58
2023-02-04T03:12:46.996Z,63.72
2023-02-04T03:15:15.172Z,63.70
2023-02-04T03:17:43.343Z,63.57
2023-02-04T03:20:12.234Z,63.45
2023-02-04T03:22:40.664Z,63.76
2023-02-04T03:25:08.890Z,63.75
2023-02-04T03:27:38.431Z,63.52
2023-02-04T03:30:08.809Z,63.86
2023-02-04T03:32:37.189Z,63.57
2023-02-04T03:35:05.866Z,63.62
2023-02-04T03:37:34.998Z,63.68
2023-02-04T03:40:03.470Z,63.18
2023-02-04T03:42:32.676Z,63.26
2023-02-04T03:45:00.853Z,63.26
2023-02-04T03:47:29.114Z,63.15
2023-02-04T03:49:57.441Z,63.06
2023-02-04T03:52:25.504Z,63.14
2023-02-04T03:54:53.589Z,62.99
2023-02-04T03:57:21.818Z,63.10
2023-02-04T03:59:50.009Z,63.02
2023-02-04T04:02:18.056Z,62.91
2023-02-04T04:04:46.126Z,62.94
2023-02-04T04:07:14.332Z,62.82
2023-02-04T04:09:42.985Z,62.74
2023-02-04T04:12:11.165Z,62.72
2023-02-04T04:14:40.526Z,62.47
2023-02-04T04:17:08.759Z,62.37
2023-02-04T04:19:36.862Z,62.33
2023-02-04T04:22:05.096Z,62.20
2023-02-04T04:24:33.660Z,62.33
2023-02-04T04:27:01.950Z,62.16
2023-02-04T04:29:30.525Z,62.23
2023-02-04T04:31:58.714Z,62.12
2023-02-04T04:34:26.806Z,62.28
2023-02-04T04:36:55.044Z,62.45
2023-02-04T04:39:23.112Z,62.44
2023-02-04T04:41:51.249Z,62.38
2023-02-04T04:44:19.294Z,62.46
2023-02-04T04:46:47.594Z,62.54
2023-02-04T04:49:16.623Z,62.45
2023-02-04T04:51:45.031Z,62.12
2023-02-04T04:54:13.210Z,62.35
2023-02-04T04:56:41.488Z,62.42
2023-02-04T04:59:10.147Z,62.38
2023-02-04T05:01:38.261Z,62.51
2023-02-04T05:04:06.455Z,62.32
2023-02-04T05:06:35.138Z,62.41
2023-02-04T05:09:03.348Z,62.32
2023-02-04T05:11:32.671Z,62.49
2023-02-04T05:14:00.657Z,62.40
2023-02-04T05:16:29.204Z,62.39
2023-02-04T05:18:57.417Z,62.47
2023-02-04T05:21:25.385Z,62.75
2023-02-04T05:23:53.378Z,62.63
2023-02-04T05:26:29.763Z,62.65
2023-02-04T05:29:01.356Z,62.69
2023-02-04T05:31:29.636Z,62.97
2023-02-04T05:33:57.999Z,62.67
2023-02-04T05:36:26.111Z,62.62
2023-02-04T05:38:54.354Z,62.67
2023-02-04T05:41:22.618Z,62.95
2023-02-04T05:43:51.031Z,62.96
2023-02-04T05:46:19.138Z,62.76
2023-02-04T05:48:47.243Z,62.98
2023-02-04T05:51:15.350Z,62.98
2023-02-04T05:53:43.485Z,63.06
2023-02-04T05:56:11.555Z,63.12
2023-02-04T05:58:40.068Z,63.11
2023-02-04T06:01:08.192Z,63.21
2023-02-04T06:03:37.140Z,63.36
2023-02-04T06:06:05.437Z,63.53
2023-02-04T06:08:33.694Z,63.57
2023-02-04T06:11:01.827Z,63.53
2023-02-04T06:13:30.001Z,63.40
2023-02-04T06:15:58.071Z,63.22
2023-02-04T06:18:27.653Z,63.11
2023-02-04T06:20:55.732Z,63.09
2023-02-04T06:23:23.810Z,63.38
2023-02-04T06:25:52.638Z,63.03
2023-02-04T06:28:20.796Z,62.98
2023-02-04T06:30:49.721Z,62.86
2023-02-04T06:33:17.818Z,62.96
2023-02-04T06:35:47.376Z,63.24
2023-02-04T06:38:15.457Z,63.23
2023-02-04T06:40:43.596Z,63.00
2023-02-04T06:43:11.933Z,63.12
2023-02-04T06:45:40.114Z,63.27
2023-02-04T06:48:08.897Z,63.04
2023-02-04T06:50:38.642Z,62.94
2023-02-04T06:53:06.864Z,62.92
2023-02-04T06:55:36.414Z,62.94
2023-02-04T06:58:05.061Z,62.88
2023-02-04T07:00:35.252Z,63.13
2023-02-04T07:03:03.525Z,62.97
2023-02-04T07:05:34.802Z,63.07
2023-02-04T07:08:02.913Z,63.04
2023-02-04T07:10:32.890Z,62.91
2023-02-04T07:13:21.029Z,62.96
2023-02-04T07:15:49.817Z,63.07
2023-02-04T07:18:18.249Z,62.88
2023-02-04T07:20:48.750Z,62.94
2023-02-04T07:23:16.953Z,62.70
2023-02-04T07:25:45.136Z,62.69
2023-02-04T07:28:13.219Z,62.75
2023-02-04T07:30:41.503Z,62.57
2023-02-04T07:33:09.604Z,62.51
2023-02-04T07:35:40.696Z,62.60
2023-02-04T07:38:08.876Z,62.85
2023-02-04T07:40:36.954Z,62.87
2023-02-04T07:43:05.502Z,63.06
2023-02-04T07:45:34.710Z,63.15
2023-02-04T07:48:03.594Z,63.08
2023-02-04T07:50:32.528Z,63.12
2023-02-04T07:53:01.012Z,63.02
2023-02-04T07:55:29.334Z,62.71
2023-02-04T07:57:57.439Z,62.90
2023-02-04T08:00:25.676Z,62.95
2023-02-04T08:02:54.780Z,62.99
2023-02-04T08:05:23.170Z,62.69
2023-02-04T08:07:51.865Z,62.59
2023-02-04T08:10:21.573Z,62.62
2023-02-04T08:12:50.046Z,62.68
2023-02-04T08:15:18.298Z,62.59
2023-02-04T08:17:47.099Z,62.49
2023-02-04T08:20:16.732Z,62.73
2023-02-04T08:22:46.212Z,62.59
2023-02-04T08:25:14.718Z,62.91
2023-02-04T08:27:44.218Z,62.64
2023-02-04T08:30:13.510Z,62.65
2023-02-04T08:32:43.999Z,62.71
2023-02-04T08:35:12.829Z,62.73
2023-02-04T08:37:41.105Z,62.76
2023-02-04T08:40:10.155Z,62.84
2023-02-04T08:42:39.585Z,62.75
2023-02-04T08:45:08.128Z,62.55
2023-02-04T08:47:36.643Z,62.63
2023-02-04T08:50:04.932Z,62.34
2023-02-04T08:52:33.327Z,62.45
2023-02-04T08:55:01.406Z,62.43
2023-02-04T08:57:30.072Z,62.56
2023-02-04T08:59:58.270Z,62.82
2023-02-04T09:02:26.378Z,62.61
2023-02-04T09:04:54.722Z,62.31
2023-02-04T09:07:23.022Z,62.04
2023-02-04T09:09:51.290Z,62.20
2023-02-04T09:13:14.417Z,62.44
2023-02-04T09:15:42.526Z,62.83
2023-02-04T09:18:22.063Z,62.91
2023-02-04T09:20:50.857Z,62.81
2023-02-04T09:23:19.325Z,62.49
2023-02-04T09:25:47.697Z,62.60
2023-02-04T09:28:17.224Z,62.02
2023-02-04T09:30:46.440Z,62.20
2023-02-04T09:33:15.173Z,62.17
2023-02-04T09:35:43.217Z,62.73
2023-02-04T09:38:11.316Z,62.41
2023-02-04T09:40:50.138Z,62.73
2023-02-04T09:43:21.531Z,62.60
2023-02-04T09:45:49.755Z,62.50
2023-02-04T09:48:17.879Z,62.38
2023-02-04T09:50:45.900Z,62.13
2023-02-04T09:53:16.126Z,62.23
2023-02-04T09:55:45.542Z,62.25
2023-02-04T09:58:23.299Z,61.60
2023-02-04T10:01:06.110Z,61.90
2023-02-04T10:03:35.486Z,62.10
2023-02-04T10:06:04.663Z,62.45
2023-02-04T10:08:33.318Z,62.35
2023-02-04T10:11:01.537Z,61.83
2023-02-04T10:13:34.394Z,61.97
2023-02-04T10:16:02.559Z,62.04
2023-02-04T10:18:32.830Z,61.96
2023-02-04T10:21:11.807Z,62.18
2023-02-04T10:23:42.143Z,62.12
2023-02-04T10:26:11.798Z,62.11
2023-02-04T10:28:40.453Z,61.32
2023-02-04T10:31:30.859Z,61.16
2023-02-04T10:34:04.261Z,60.43
2023-02-04T10:36:33.766Z,60.70
2023-02-04T10:39:07.306Z,60.91
2023-02-04T10:41:40.100Z,60.95
2023-02-04T10:44:10.927Z,60.46
2023-02-04T10:46:38.993Z,60.24
2023-02-04T10:49:22.065Z,59.93
2023-02-04T10:51:51.551Z,59.45
2023-02-04T10:54:30.572Z,59.48
2023-02-04T10:57:15.608Z,59.88
2023-02-04T10:59:44.552Z,60.09
2023-02-04T11:02:44.219Z,59.51
2023-02-04T11:05:20.189Z,59.43
2023-02-04T11:07:48.811Z,58.98
2023-02-04T11:10:21.558Z,59.03
2023-02-04T11:12:56.013Z,58.97
2023-02-04T11:15:39.393Z,58.74
2023-02-04T11:18:12.703Z,58.60
2023-02-04T11:20:41.339Z,58.23
2023-02-04T11:23:32.250Z,57.64
2023-02-04T11:26:19.413Z,57.55
2023-02-04T11:28:59.792Z,57.54
2023-02-04T11:31:40.778Z,57.51
2023-02-04T11:34:14.375Z,57.76
2023-02-04T11:37:01.458Z,57.93
2023-02-04T11:39:34.622Z,57.86
2023-02-04T11:42:03.568Z,57.87
2023-02-04T11:44:33.057Z,57.53
2023-02-04T11:47:01.785Z,57.09
2023-02-04T11:49:30.450Z,57.36
2023-02-04T11:52:10.341Z,58.00
2023-02-04T11:54:39.426Z,57.57
2023-02-04T11:57:09.734Z,57.09
2023-02-04T11:59:42.171Z,56.95
2023-02-04T12:02:22.094Z,56.54
2023-02-04T12:04:57.930Z,56.70
2023-02-04T12:07:29.602Z,56.49
2023-02-04T12:09:57.729Z,56.63
2023-02-04T12:12:30.166Z,57.37
2023-02-04T12:15:04.694Z,57.09
2023-02-04T12:18:57.167Z,57.08
2023-02-04T12:21:24.139Z,57.16
2023-02-04T12:23:50.820Z,57.02
2023-02-04T12:26:17.389Z,56.39
2023-02-04T12:28:44.005Z,56.19
2023-02-04T12:31:10.904Z,56.01
2023-02-04T12:33:37.795Z,56.11
2023-02-04T12:36:05.231Z,56.28
2023-02-04T12:38:32.065Z,56.39
2023-02-04T12:40:58.831Z,56.87
2023-02-04T12:43:28.261Z,56.77
2023-02-04T12:45:55.259Z,57.14
2023-02-04T12:48:21.936Z,56.92
2023-02-04T12:50:48.795Z,57.05
2023-02-04T12:53:15.812Z,57.56
2023-02-04T12:55:43.137Z,57.64
2023-02-04T12:58:09.815Z,57.77
2023-02-04T13:00:36.912Z,57.98
2023-02-04T13:03:04.615Z,57.98
2023-02-04T13:05:31.746Z,58.36
2023-02-04T13:07:58.912Z,57.90
2023-02-04T13:10:25.662Z,57.65
2023-02-04T13:12:54.880Z,57.51
2023-02-04T13:15:21.589Z,57.54
2023-02-04T13:17:49.254Z,57.49
2023-02-04T13:20:17.100Z,57.38
2023-02-04T13:22:44.432Z,57.23
2023-02-04T13:25:11.196Z,57.34
2023-02-04T13:27:39.076Z,57.66
2023-02-04T13:30:06.839Z,58.05
2023-02-04T13:32:34.296Z,58.20
2023-02-04T13:35:01.755Z,58.27
2023-02-04T13:37:29.346Z,57.85
2023-02-04T13:39:56.054Z,57.70
2023-02-04T13:42:23.512Z,58.14
2023-02-04T13:44:50.520Z,58.07
2023-02-04T13:47:17.248Z,57.98
2023-02-04T13:49:44.146Z,58.08
2023-02-04T13:52:12.734Z,57.82
2023-02-04T13:54:39.893Z,58.04
2023-02-04T13:57:06.722Z,57.93
2023-02-04T13:59:33.573Z,58.07
2023-02-04T14:02:01.229Z,58.17
2023-02-04T14:04:28.585Z,58.27
2023-02-04T14:06:56.039Z,58.11
2023-02-04T14:09:24.734Z,58.28
2023-02-04T14:11:51.463Z,58.35
2023-02-04T14:14:18.848Z,58.46
2023-02-04T14:16:45.814Z,59.02
2023-02-04T14:19:13.850Z,58.82
2023-02-04T14:21:41.598Z,58.96
2023-02-04T14:24:08.878Z,59.02
2023-02-04T14:26:36.813Z,59.22
2023-02-04T14:29:04.174Z,59.34
2023-02-04T14:31:31.138Z,59.50
2023-02-04T14:33:58.688Z,59.72
2023-02-04T14:36:25.310Z,59.55
2023-02-04T14:38:51.969Z,59.77
2023-02-04T14:41:20.777Z,59.96
2023-02-04T14:43:47.460Z,60.02
2023-02-04T14:46:14.632Z,60.18
2023-02-04T14:48:41.506Z,60.18
2023-02-04T14:51:08.093Z,60.46
2023-02-04T14:53:34.677Z,60.54
2023-02-04T14:56:01.636Z,60.59
2023-02-04T14:58:28.716Z,60.57
2023-02-04T15:00:55.841Z,60.69
2023-02-04T15:03:22.847Z,60.83
2023-02-04T15:05:49.701Z,60.89
2023-02-04T15:08:17.135Z,61.27
2023-02-04T15:10:43.739Z,61.39
2023-02-04T15:13:10.825Z,61.25
2023-02-04T15:15:37.581Z,61.53
2023-02-04T15:18:04.508Z,61.71
2023-02-04T15:20:31.351Z,61.73
2023-02-04T15:23:00.597Z,62.04
2023-02-04T15:25:27.796Z,61.88
2023-02-04T15:27:54.695Z,62.07
2023-02-04T15:30:21.476Z,62.11
2023-02-04T15:32:48.567Z,62.13
2023-02-04T15:35:15.409Z,62.51
2023-02-04T15:37:42.429Z,62.46
2023-02-04T15:40:10.427Z,62.30
2023-02-04T15:42:37.568Z,62.65
2023-02-04T15:45:04.908Z,62.44
2023-02-04T15:47:32.146Z,62.55
2023-02-04T15:49:58.926Z,62.45
2023-02-04T15:52:26.633Z,62.24
2023-02-04T15:54:54.719Z,62.30
2023-02-04T15:57:21.277Z,62.54
2023-02-04T15:59:47.998Z,62.32
2023-02-04T16:02:15.299Z,62.19
2023-02-04T16:04:44.651Z,61.90
2023-02-04T16:07:11.559Z,62.02
2023-02-04T16:09:38.480Z,61.66
2023-02-04T16:12:05.509Z,61.67
2023-02-04T16:14:32.739Z,61.45
2023-02-04T16:17:01.304Z,61.54
2023-02-04T16:19:28.641Z,61.64
2023-02-04T16:21:55.783Z,61.53
2023-02-04T16:24:23.198Z,61.57
2023-02-04T16:26:50.229Z,61.48
2023-02-04T16:29:17.609Z,61.17
2023-02-04T16:31:44.837Z,60.98
2023-02-04T16:34:11.958Z,61.22
2023-02-04T16:36:38.726Z,61.36
2023-02-04T16:39:05.894Z,61.22
2023-02-04T16:41:32.689Z,61.40
2023-02-04T16:43:59.949Z,61.53
2023-02-04T16:46:28.097Z,61.45
2023-02-04T16:48:55.302Z,61.60
2023-02-04T16:51:24.182Z,61.95
2023-02-04T16:53:51.013Z,61.83
2023-02-04T16:56:17.755Z,61.75
2023-02-04T16:58:44.602Z,61.84
2023-02-04T17:01:11.750Z,61.92
2023-02-04T17:03:39.325Z,61.61
2023-02-04T17:06:06.752Z,61.45
2023-02-04T17:08:34.542Z,61.65
2023-02-04T17:11:20.022Z,61.78
2023-02-04T17:13:47.160Z,61.71
2023-02-04T17:16:15.986Z,61.63
2023-02-04T17:18:42.793Z,61.66
2023-02-04T17:21:10.009Z,61.58
2023-02-04T17:23:36.997Z,61.56
2023-02-04T17:26:04.651Z,61.70
2023-02-04T17:28:31.999Z,61.69
2023-02-04T17:30:58.762Z,61.89
2023-02-04T17:33:25.585Z,61.79
2023-02-04T17:35:52.503Z,61.98
2023-02-04T17:38:19.204Z,61.70
2023-02-04T17:40:46.275Z,61.80
2023-02-04T17:43:12.925Z,61.74
2023-02-04T17:45:40.110Z,61.51
2023-02-04T17:48:07.163Z,61.51
2023-02-04T17:53:03.714Z,61.59
2023-02-04T17:55:32.812Z,61.54
2023-02-04T17:58:00.405Z,61.59
2023-02-04T18:00:28.433Z,61.37
2023-02-04T18:02:55.440Z,61.31
2023-02-04T18:05:27.079Z,61.21
2023-02-04T18:08:13.889Z,61.24
2023-02-04T18:10:45.649Z,60.91
2023-02-04T18:13:13.984Z,60.78
2023-02-04T18:15:43.389Z,60.78
2023-02-04T18:18:21.742Z,60.52
2023-02-04T18:21:00.865Z,60.32
2023-02-04T18:23:29.435Z,60.51
2023-02-04T18:26:00.950Z,60.46
2023-02-04T18:28:27.806Z,60.47
2023-02-04T18:31:03.079Z,60.46
2023-02-04T18:33:29.846Z,60.41
2023-02-04T18:35:58.016Z,60.48
2023-02-04T18:38:31.608Z,60.37
2023-02-04T18:41:12.673Z,60.11
2023-02-04T18:43:39.546Z,59.90
2023-02-04T18:46:26.170Z,59.97
2023-02-04T18:49:01.402Z,59.78
2023-02-04T18:51:31.546Z,59.66
2023-02-04T18:54:01.032Z,59.17
2023-02-04T18:56:30.791Z,59.13
2023-02-04T18:58:57.349Z,59.15
2023-02-04T19:01:27.049Z,58.87
2023-02-04T19:03:55.596Z,59.05
2023-02-04T19:06:31.323Z,58.89
2023-02-04T19:09:29.857Z,58.49
2023-02-04T19:11:57.171Z,58.18
2023-02-04T19:14:38.344Z,58.22
2023-02-04T19:17:25.778Z,58.22
2023-02-04T19:20:00.141Z,58.15
2023-02-04T19:22:53.124Z,57.91
2023-02-04T19:25:33.532Z,58.19
2023-02-04T19:28:02.301Z,58.07
2023-02-04T19:30:29.702Z,58.43
2023-02-04T19:33:01.366Z,58.48
2023-02-04T19:35:34.853Z,58.75
2023-02-04T19:38:02.276Z,58.66
2023-02-04T19:40:34.339Z,58.42
2023-02-04T19:43:15.308Z,58.34
2023-02-04T19:45:42.224Z,58.44
2023-02-04T19:48:19.537Z,58.48
2023-02-04T19:50:46.396Z,58.79
2023-02-04T19:53:24.690Z,58.61
2023-02-04T19:55:52.049Z,58.26
2023-02-04T19:58:28.433Z,58.22
2023-02-04T20:01:02.927Z,58.25
2023-02-04T20:03:36.067Z,58.26
2023-02-04T20:06:09.322Z,58.00
2023-02-04T20:08:53.445Z,58.07
2023-02-04T20:11:29.238Z,57.84
2023-02-04T20:14:13.468Z,58.09
2023-02-04T20:16:57.544Z,57.91
2023-02-04T20:19:32.190Z,57.65
2023-02-04T20:22:17.336Z,57.79
2023-02-04T20:24:45.791Z,57.64
2023-02-04T20:27:21.241Z,57.61
2023-02-04T20:29:49.507Z,57.83
2023-02-04T20:32:25.624Z,57.67
2023-02-04T20:34:53.554Z,57.58
2023-02-04T20:37:25.907Z,57.62
2023-02-04T20:39:52.860Z,57.64
2023-02-04T20:42:32.459Z,57.65
2023-02-04T20:45:14.423Z,57.97
2023-02-04T20:47:44.204Z,58.18
2023-02-04T20:50:33.065Z,58.26
2023-02-04T20:53:05.775Z,58.36
2023-02-04T20:55:33.457Z,58.28
2023-02-04T20:58:20.939Z,58.10
2023-02-04T21:00:51.513Z,57.85
2023-02-04T21:03:23.442Z,57.75
2023-02-04T21:05:51.875Z,57.93
2023-02-04T21:08:23.751Z,57.97
2023-02-04T21:10:51.015Z,57.83
2023-02-04T21:13:17.756Z,57.88
2023-02-04T21:15:47.637Z,58.09
2023-02-04T21:18:14.720Z,58.15
2023-02-04T21:20:41.293Z,58.31
2023-02-04T21:23:08.675Z,58.21
2023-02-04T21:25:35.626Z,58.39
2023-02-04T21:28:04.512Z,58.25
2023-02-04T21:30:31.592Z,57.98
2023-02-04T21:32:59.356Z,58.13
2023-02-04T21:35:26.172Z,58.12
2023-02-04T21:37:54.137Z,57.81
2023-02-04T21:40:21.429Z,57.96
2023-02-04T21:42:48.718Z,58.00
2023-02-04T21:45:16.966Z,58.09
2023-02-04T21:47:44.819Z,58.01
2023-02-04T21:50:13.811Z,58.08
2023-02-04T21:52:41.787Z,58.16
2023-02-04T21:55:09.059Z,58.00
2023-02-04T21:57:36.896Z,57.88
2023-02-04T22:00:05.183Z,57.83
2023-02-04T22:02:32.098Z,58.05
2023-02-04T22:04:58.874Z,57.78
2023-02-04T22:07:25.498Z,57.83
2023-02-04T22:09:52.276Z,57.92
2023-02-04T22:12:19.165Z,57.92
2023-02-04T22:14:45.795Z,57.64
2023-02-04T22:17:12.570Z,57.39
2023-02-04T22:19:39.299Z,57.37
2023-02-04T22:22:05.953Z,57.26
2023-02-04T22:24:33.703Z,57.08
2023-02-04T22:27:00.374Z,57.09
2023-02-04T22:29:29.459Z,56.97
2023-02-04T22:31:56.058Z,56.64
2023-02-04T22:34:24.454Z,56.80
2023-02-04T22:36:52.582Z,56.85
2023-02-04T22:39:19.267Z,57.22
2023-02-04T22:41:46.414Z,57.40
2023-02-04T22:44:13.503Z,57.42
2023-02-04T22:46:40.281Z,57.28
2023-02-04T22:49:07.082Z,57.12
2023-02-04T22:51:34.694Z,57.23
2023-02-04T22:54:01.459Z,57.17
2023-02-04T22:56:28.054Z,57.19
2023-02-04T22:58:54.583Z,57.29
2023-02-04T23:01:21.186Z,57.40
2023-02-04T23:03:48.316Z,57.56
2023-02-04T23:06:15.284Z,57.55
2023-02-04T23:08:42.237Z,57.64
2023-02-04T23:11:11.247Z,57.51
2023-02-04T23:13:39.026Z,57.48
2023-02-04T23:16:06.349Z,57.49
2023-02-04T23:18:33.460Z,57.41
2023-02-04T23:21:00.331Z,57.50
2023-02-04T23:23:28.823Z,57.74
2023-02-04T23:25:55.802Z,57.80
2023-02-04T23:28:22.468Z,57.85
2023-02-04T23:30:52.154Z,57.77
2023-02-04T23:33:19.010Z,57.66
2023-02-04T23:35:45.612Z,57.48
2023-02-04T23:38:12.390Z,57.35
2023-02-04T23:40:39.267Z,57.23
2023-02-04T23:43:06.238Z,56.99
2023-02-04T23:45:33.295Z,56.76
2023-02-04T23:48:00.136Z,56.80
2023-02-04T23:50:26.849Z,56.94
2023-02-04T23:52:54.108Z,57.06
2023-02-04T23:55:20.701Z,56.97
2023-02-04T23:57:49.046Z,57.28
